sensor_id;sensor_type;location;lat;lon;timestamp;noise_LAeq;noise_LA_min;noise_LA_max;noise_LA01;noise_LA95
67302;Laerm;57659;51.436;5.978;2024-01-30T00:00:09;32.18;28.44;41.97;;
67302;Laerm;57659;51.436;5.978;2024-01-30T00:00:20;32.80;28.63;42.45;;
67302;Laerm;57659;51.436;5.978;2024-01-30T00:00:31;32.64;28.63;42.01;;
67302;Laerm;57659;51.436;5.978;2024-01-30T00:00:41;32.34;27.99;41.33;;
67302;Laerm;57659;51.436;5.978;2024-01-30T00:00:51;32.15;28.58;42.00;;
67302;Laerm;57659;51.436;5.978;2024-01-30T00:01:02;32.77;28.33;42.09;;
67302;Laerm;57659;51.436;5.978;2024-01-30T00:01:12;32.77;28.58;41.50;;
67302;Laerm;57659;51.436;5.978;2024-01-30T00:01:23;32.63;28.29;41.66;;
67302;Laerm;57659;51.436;5.978;2024-01-30T00:01:33;32.47;28.59;41.76;;
67302;Laerm;57659;51.436;5.978;2024-01-30T00:01:43;32.79;28.51;42.00;;
67302;Laerm;57659;51.436;5.978;2024-01-30T00:01:54;32.83;28.58;42.59;;
67302;Laerm;57659;51.436;5.978;2024-01-30T00:02:04;32.79;28.50;41.60;;
67302;Laerm;57659;51.436;5.978;2024-01-30T00:02:14;32.85;28.31;42.11;;
67302;Laerm;57659;51.436;5.978;2024-01-30T00:02:24;33.14;28.41;43.10;;
67302;Laerm;57659;51.436;5.978;2024-01-30T00:02:35;33.14;28.44;42.91;;
67302;Laerm;57659;51.436;5.978;2024-01-30T00:02:45;32.84;28.52;42.63;;
67302;Laerm;57659;51.436;5.978;2024-01-30T00:02:56;32.96;28.49;42.95;;
67302;Laerm;57659;51.436;5.978;2024-01-30T00:03:06;33.24;28.52;43.37;;
67302;Laerm;57659;51.436;5.978;2024-01-30T00:03:17;33.13;28.53;43.13;;
67302;Laerm;57659;51.436;5.978;2024-01-30T00:03:28;33.17;28.37;42.83;;
67302;Laerm;57659;51.436;5.978;2024-01-30T00:03:40;33.27;28.63;42.85;;
67302;Laerm;57659;51.436;5.978;2024-01-30T00:03:50;33.20;28.50;42.53;;
67302;Laerm;57659;51.436;5.978;2024-01-30T00:04:01;33.18;28.46;42.59;;
67302;Laerm;57659;51.436;5.978;2024-01-30T00:04:12;33.19;28.55;42.59;;
67302;Laerm;57659;51.436;5.978;2024-01-30T00:04:22;33.51;28.43;43.04;;
67302;Laerm;57659;51.436;5.978;2024-01-30T00:04:32;33.28;28.48;43.28;;
67302;Laerm;57659;51.436;5.978;2024-01-30T00:04:42;33.23;28.35;43.10;;
67302;Laerm;57659;51.436;5.978;2024-01-30T00:04:53;33.15;28.51;42.75;;
67302;Laerm;57659;51.436;5.978;2024-01-30T00:05:03;33.35;28.48;43.18;;
67302;Laerm;57659;51.436;5.978;2024-01-30T00:05:13;33.16;28.56;43.38;;
67302;Laerm;57659;51.436;5.978;2024-01-30T00:05:24;32.59;28.43;42.14;;
67302;Laerm;57659;51.436;5.978;2024-01-30T00:05:34;32.83;28.61;42.43;;
67302;Laerm;57659;51.436;5.978;2024-01-30T00:05:44;33.32;28.56;43.20;;
67302;Laerm;57659;51.436;5.978;2024-01-30T00:05:54;33.12;28.65;43.10;;
67302;Laerm;57659;51.436;5.978;2024-01-30T00:06:05;32.65;28.41;42.46;;
67302;Laerm;57659;51.436;5.978;2024-01-30T00:06:17;32.72;28.52;42.44;;
67302;Laerm;57659;51.436;5.978;2024-01-30T00:06:28;33.31;28.46;42.96;;
67302;Laerm;57659;51.436;5.978;2024-01-30T00:06:38;33.25;28.65;43.19;;
67302;Laerm;57659;51.436;5.978;2024-01-30T00:06:50;32.89;28.59;41.93;;
67302;Laerm;57659;51.436;5.978;2024-01-30T00:07:01;32.72;28.46;41.91;;
67302;Laerm;57659;51.436;5.978;2024-01-30T00:07:11;33.40;28.60;42.87;;
67302;Laerm;57659;51.436;5.978;2024-01-30T00:07:21;33.24;28.52;42.90;;
67302;Laerm;57659;51.436;5.978;2024-01-30T00:07:31;33.10;28.49;42.28;;
67302;Laerm;57659;51.436;5.978;2024-01-30T00:07:42;32.67;28.60;42.40;;
67302;Laerm;57659;51.436;5.978;2024-01-30T00:07:53;33.16;28.52;43.25;;
67302;Laerm;57659;51.436;5.978;2024-01-30T00:08:03;33.49;28.49;43.24;;
67302;Laerm;57659;51.436;5.978;2024-01-30T00:08:13;33.22;28.41;43.30;;
67302;Laerm;57659;51.436;5.978;2024-01-30T00:08:24;33.17;28.50;43.41;;
67302;Laerm;57659;51.436;5.978;2024-01-30T00:08:34;33.64;28.20;44.51;;
67302;Laerm;57659;51.436;5.978;2024-01-30T00:08:44;33.52;28.42;43.44;;
67302;Laerm;57659;51.436;5.978;2024-01-30T00:08:56;33.09;28.37;43.37;;
67302;Laerm;57659;51.436;5.978;2024-01-30T00:09:07;33.46;28.11;43.69;;
67302;Laerm;57659;51.436;5.978;2024-01-30T00:09:17;33.44;27.98;43.21;;
67302;Laerm;57659;51.436;5.978;2024-01-30T00:09:28;33.53;28.48;42.85;;
67302;Laerm;57659;51.436;5.978;2024-01-30T00:09:38;33.32;28.62;43.34;;
67302;Laerm;57659;51.436;5.978;2024-01-30T00:09:49;33.39;28.66;43.29;;
67302;Laerm;57659;51.436;5.978;2024-01-30T00:10:00;33.17;28.51;43.27;;
67302;Laerm;57659;51.436;5.978;2024-01-30T00:10:10;33.06;28.62;42.47;;
67302;Laerm;57659;51.436;5.978;2024-01-30T00:10:20;33.21;28.43;42.52;;
67302;Laerm;57659;51.436;5.978;2024-01-30T00:10:30;33.32;28.37;43.40;;
67302;Laerm;57659;51.436;5.978;2024-01-30T00:10:41;33.33;28.41;43.18;;
67302;Laerm;57659;51.436;5.978;2024-01-30T00:10:51;32.99;28.44;42.62;;
67302;Laerm;57659;51.436;5.978;2024-01-30T00:11:01;33.12;28.26;43.14;;
67302;Laerm;57659;51.436;5.978;2024-01-30T00:11:11;33.20;28.51;43.32;;
67302;Laerm;57659;51.436;5.978;2024-01-30T00:11:22;33.14;28.15;43.45;;
67302;Laerm;57659;51.436;5.978;2024-01-30T00:11:32;32.66;28.51;41.74;;
67302;Laerm;57659;51.436;5.978;2024-01-30T00:11:43;32.79;28.36;42.79;;
67302;Laerm;57659;51.436;5.978;2024-01-30T00:11:53;33.21;28.61;43.31;;
67302;Laerm;57659;51.436;5.978;2024-01-30T00:12:03;33.33;28.53;42.83;;
67302;Laerm;57659;51.436;5.978;2024-01-30T00:12:14;33.18;28.39;42.33;;
67302;Laerm;57659;51.436;5.978;2024-01-30T00:12:24;32.74;28.50;42.42;;
67302;Laerm;57659;51.436;5.978;2024-01-30T00:12:34;33.38;28.32;43.00;;
67302;Laerm;57659;51.436;5.978;2024-01-30T00:12:44;33.23;28.32;42.69;;
67302;Laerm;57659;51.436;5.978;2024-01-30T00:12:55;33.30;28.30;42.72;;
67302;Laerm;57659;51.436;5.978;2024-01-30T00:13:05;32.77;28.42;41.78;;
67302;Laerm;57659;51.436;5.978;2024-01-30T00:13:15;33.40;28.52;43.16;;
67302;Laerm;57659;51.436;5.978;2024-01-30T00:13:27;33.32;28.30;42.99;;
67302;Laerm;57659;51.436;5.978;2024-01-30T00:13:37;33.29;28.52;42.34;;
67302;Laerm;57659;51.436;5.978;2024-01-30T00:13:48;33.09;28.72;42.58;;
67302;Laerm;57659;51.436;5.978;2024-01-30T00:13:58;33.06;28.54;43.14;;
67302;Laerm;57659;51.436;5.978;2024-01-30T00:14:08;33.48;28.78;43.27;;
67302;Laerm;57659;51.436;5.978;2024-01-30T00:14:19;38.32;28.85;45.55;;
67302;Laerm;57659;51.436;5.978;2024-01-30T00:14:29;41.86;38.84;45.86;;
67302;Laerm;57659;51.436;5.978;2024-01-30T00:14:41;41.56;37.66;45.83;;
67302;Laerm;57659;51.436;5.978;2024-01-30T00:14:51;34.39;28.96;43.90;;
67302;Laerm;57659;51.436;5.978;2024-01-30T00:15:01;33.31;28.42;43.07;;
67302;Laerm;57659;51.436;5.978;2024-01-30T00:15:14;32.97;28.52;43.13;;
67302;Laerm;57659;51.436;5.978;2024-01-30T00:15:25;33.40;28.41;42.80;;
67302;Laerm;57659;51.436;5.978;2024-01-30T00:15:35;33.13;28.49;42.26;;
67302;Laerm;57659;51.436;5.978;2024-01-30T00:15:45;33.28;28.52;42.62;;
67302;Laerm;57659;51.436;5.978;2024-01-30T00:15:56;33.44;28.20;43.20;;
67302;Laerm;57659;51.436;5.978;2024-01-30T00:16:06;33.37;28.46;42.64;;
67302;Laerm;57659;51.436;5.978;2024-01-30T00:16:22;33.36;28.57;42.74;;
67302;Laerm;57659;51.436;5.978;2024-01-30T00:16:36;33.28;28.52;42.93;;
67302;Laerm;57659;51.436;5.978;2024-01-30T00:16:46;33.60;28.35;43.39;;
67302;Laerm;57659;51.436;5.978;2024-01-30T00:16:57;33.35;28.57;43.21;;
67302;Laerm;57659;51.436;5.978;2024-01-30T00:17:07;33.22;28.65;43.04;;
67302;Laerm;57659;51.436;5.978;2024-01-30T00:17:17;33.41;28.43;43.45;;
67302;Laerm;57659;51.436;5.978;2024-01-30T00:17:29;33.43;28.58;43.12;;
67302;Laerm;57659;51.436;5.978;2024-01-30T00:17:39;33.01;28.49;42.83;;
67302;Laerm;57659;51.436;5.978;2024-01-30T00:17:49;32.91;28.46;42.53;;
67302;Laerm;57659;51.436;5.978;2024-01-30T00:18:02;33.58;28.53;43.76;;
67302;Laerm;57659;51.436;5.978;2024-01-30T00:18:12;33.49;28.31;43.64;;
67302;Laerm;57659;51.436;5.978;2024-01-30T00:18:23;33.02;28.69;42.78;;
67302;Laerm;57659;51.436;5.978;2024-01-30T00:18:33;32.77;28.61;42.09;;
67302;Laerm;57659;51.436;5.978;2024-01-30T00:18:43;33.32;28.47;43.32;;
67302;Laerm;57659;51.436;5.978;2024-01-30T00:18:54;33.41;28.56;43.06;;
67302;Laerm;57659;51.436;5.978;2024-01-30T00:19:04;33.18;28.37;42.85;;
67302;Laerm;57659;51.436;5.978;2024-01-30T00:19:15;32.78;28.54;42.38;;
67302;Laerm;57659;51.436;5.978;2024-01-30T00:19:25;33.39;28.60;42.79;;
67302;Laerm;57659;51.436;5.978;2024-01-30T00:19:35;33.39;28.36;42.12;;
67302;Laerm;57659;51.436;5.978;2024-01-30T00:19:46;33.18;28.36;41.37;;
67302;Laerm;57659;51.436;5.978;2024-01-30T00:19:56;32.73;28.48;42.22;;
67302;Laerm;57659;51.436;5.978;2024-01-30T00:20:06;33.03;28.47;42.15;;
67302;Laerm;57659;51.436;5.978;2024-01-30T00:20:19;33.36;28.49;42.34;;
67302;Laerm;57659;51.436;5.978;2024-01-30T00:20:29;33.12;28.71;41.95;;
67302;Laerm;57659;51.436;5.978;2024-01-30T00:20:39;33.28;28.59;42.14;;
67302;Laerm;57659;51.436;5.978;2024-01-30T00:20:50;33.55;28.58;43.39;;
67302;Laerm;57659;51.436;5.978;2024-01-30T00:21:00;33.32;28.60;42.72;;
67302;Laerm;57659;51.436;5.978;2024-01-30T00:21:10;33.38;28.59;42.93;;
67302;Laerm;57659;51.436;5.978;2024-01-30T00:21:20;33.29;28.58;43.23;;
67302;Laerm;57659;51.436;5.978;2024-01-30T00:21:31;33.58;28.31;43.59;;
67302;Laerm;57659;51.436;5.978;2024-01-30T00:21:41;33.54;28.65;43.32;;
67302;Laerm;57659;51.436;5.978;2024-01-30T00:21:51;33.58;28.50;43.26;;
67302;Laerm;57659;51.436;5.978;2024-01-30T00:22:02;43.74;32.73;49.52;;
67302;Laerm;57659;51.436;5.978;2024-01-30T00:22:12;41.93;38.05;45.88;;
67302;Laerm;57659;51.436;5.978;2024-01-30T00:22:22;40.54;30.04;45.15;;
67302;Laerm;57659;51.436;5.978;2024-01-30T00:22:32;33.37;28.49;43.14;;
67302;Laerm;57659;51.436;5.978;2024-01-30T00:22:43;33.23;28.59;42.91;;
67302;Laerm;57659;51.436;5.978;2024-01-30T00:22:53;33.55;28.61;43.41;;
67302;Laerm;57659;51.436;5.978;2024-01-30T00:23:04;33.13;28.50;41.97;;
67302;Laerm;57659;51.436;5.978;2024-01-30T00:23:14;33.12;28.48;43.25;;
67302;Laerm;57659;51.436;5.978;2024-01-30T00:23:25;33.18;28.38;42.89;;
67302;Laerm;57659;51.436;5.978;2024-01-30T00:23:35;33.43;28.57;43.05;;
67302;Laerm;57659;51.436;5.978;2024-01-30T00:23:45;33.00;28.63;42.63;;
67302;Laerm;57659;51.436;5.978;2024-01-30T00:23:55;33.05;28.58;42.70;;
67302;Laerm;57659;51.436;5.978;2024-01-30T00:24:06;33.54;28.46;43.52;;
67302;Laerm;57659;51.436;5.978;2024-01-30T00:24:16;33.79;28.52;43.53;;
67302;Laerm;57659;51.436;5.978;2024-01-30T00:24:27;33.53;28.50;42.98;;
67302;Laerm;57659;51.436;5.978;2024-01-30T00:24:37;33.22;28.40;42.35;;
67302;Laerm;57659;51.436;5.978;2024-01-30T00:24:47;33.35;28.30;42.62;;
67302;Laerm;57659;51.436;5.978;2024-01-30T00:24:58;33.55;28.34;43.85;;
67302;Laerm;57659;51.436;5.978;2024-01-30T00:25:08;33.74;28.51;43.34;;
67302;Laerm;57659;51.436;5.978;2024-01-30T00:25:18;33.22;28.51;43.16;;
67302;Laerm;57659;51.436;5.978;2024-01-30T00:25:28;33.17;28.69;42.78;;
67302;Laerm;57659;51.436;5.978;2024-01-30T00:25:39;34.08;28.37;47.65;;
67302;Laerm;57659;51.436;5.978;2024-01-30T00:25:49;32.88;28.51;41.92;;
67302;Laerm;57659;51.436;5.978;2024-01-30T00:26:00;32.73;28.43;41.54;;
67302;Laerm;57659;51.436;5.978;2024-01-30T00:26:10;32.47;28.44;41.15;;
67302;Laerm;57659;51.436;5.978;2024-01-30T00:26:21;32.81;28.44;42.05;;
67302;Laerm;57659;51.436;5.978;2024-01-30T00:26:31;32.87;28.45;41.96;;
67302;Laerm;57659;51.436;5.978;2024-01-30T00:26:42;32.65;28.33;42.19;;
67302;Laerm;57659;51.436;5.978;2024-01-30T00:26:52;32.70;28.38;41.64;;
67302;Laerm;57659;51.436;5.978;2024-01-30T00:27:02;32.90;28.45;42.55;;
67302;Laerm;57659;51.436;5.978;2024-01-30T00:27:13;32.98;28.50;41.59;;
67302;Laerm;57659;51.436;5.978;2024-01-30T00:27:23;32.52;28.42;41.96;;
67302;Laerm;57659;51.436;5.978;2024-01-30T00:27:33;32.86;28.54;42.00;;
67302;Laerm;57659;51.436;5.978;2024-01-30T00:27:43;32.83;28.44;42.58;;
67302;Laerm;57659;51.436;5.978;2024-01-30T00:27:54;32.89;28.35;41.11;;
67302;Laerm;57659;51.436;5.978;2024-01-30T00:28:04;32.58;28.27;40.96;;
67302;Laerm;57659;51.436;5.978;2024-01-30T00:28:14;32.92;28.36;41.85;;
67302;Laerm;57659;51.436;5.978;2024-01-30T00:28:24;32.91;28.52;41.82;;
67302;Laerm;57659;51.436;5.978;2024-01-30T00:28:35;32.79;28.47;41.15;;
67302;Laerm;57659;51.436;5.978;2024-01-30T00:28:45;32.71;28.62;40.97;;
67302;Laerm;57659;51.436;5.978;2024-01-30T00:28:55;32.67;28.44;41.71;;
67302;Laerm;57659;51.436;5.978;2024-01-30T00:29:06;33.04;28.54;42.03;;
67302;Laerm;57659;51.436;5.978;2024-01-30T00:29:16;32.73;28.52;41.35;;
67302;Laerm;57659;51.436;5.978;2024-01-30T00:29:29;32.56;28.47;41.82;;
67302;Laerm;57659;51.436;5.978;2024-01-30T00:29:43;43.59;28.15;61.66;;
67302;Laerm;57659;51.436;5.978;2024-01-30T00:29:53;33.78;28.60;43.98;;
67302;Laerm;57659;51.436;5.978;2024-01-30T00:30:04;32.95;27.98;42.56;;
67302;Laerm;57659;51.436;5.978;2024-01-30T00:30:15;33.27;28.66;43.48;;
67302;Laerm;57659;51.436;5.978;2024-01-30T00:30:25;33.43;28.54;44.03;;
67302;Laerm;57659;51.436;5.978;2024-01-30T00:30:35;33.33;28.62;43.30;;
67302;Laerm;57659;51.436;5.978;2024-01-30T00:30:45;32.77;28.53;42.47;;
67302;Laerm;57659;51.436;5.978;2024-01-30T00:30:56;33.12;28.18;43.49;;
67302;Laerm;57659;51.436;5.978;2024-01-30T00:31:06;33.55;28.31;44.07;;
67302;Laerm;57659;51.436;5.978;2024-01-30T00:31:16;33.50;28.68;43.74;;
67302;Laerm;57659;51.436;5.978;2024-01-30T00:31:27;33.19;28.55;42.89;;
67302;Laerm;57659;51.436;5.978;2024-01-30T00:31:37;33.18;28.52;43.62;;
67302;Laerm;57659;51.436;5.978;2024-01-30T00:31:47;33.62;28.64;44.08;;
67302;Laerm;57659;51.436;5.978;2024-01-30T00:31:58;33.53;28.57;42.98;;
67302;Laerm;57659;51.436;5.978;2024-01-30T00:32:08;33.20;28.50;42.71;;
67302;Laerm;57659;51.436;5.978;2024-01-30T00:32:18;32.87;28.44;41.98;;
67302;Laerm;57659;51.436;5.978;2024-01-30T00:32:29;33.18;28.47;42.44;;
67302;Laerm;57659;51.436;5.978;2024-01-30T00:32:39;33.46;28.64;42.89;;
67302;Laerm;57659;51.436;5.978;2024-01-30T00:32:50;33.44;28.58;43.47;;
67302;Laerm;57659;51.436;5.978;2024-01-30T00:33:00;33.35;28.58;43.21;;
67302;Laerm;57659;51.436;5.978;2024-01-30T00:33:10;33.58;28.39;43.09;;
67302;Laerm;57659;51.436;5.978;2024-01-30T00:33:21;33.37;28.50;43.43;;
67302;Laerm;57659;51.436;5.978;2024-01-30T00:33:31;33.33;28.53;42.51;;
67302;Laerm;57659;51.436;5.978;2024-01-30T00:33:42;33.36;28.45;43.26;;
67302;Laerm;57659;51.436;5.978;2024-01-30T00:33:52;33.21;28.40;43.86;;
67302;Laerm;57659;51.436;5.978;2024-01-30T00:34:02;33.33;28.35;42.84;;
67302;Laerm;57659;51.436;5.978;2024-01-30T00:34:13;33.17;28.43;42.64;;
67302;Laerm;57659;51.436;5.978;2024-01-30T00:34:23;33.35;28.62;43.34;;
67302;Laerm;57659;51.436;5.978;2024-01-30T00:34:33;33.14;28.72;43.91;;
67302;Laerm;57659;51.436;5.978;2024-01-30T00:34:43;33.07;28.62;42.95;;
67302;Laerm;57659;51.436;5.978;2024-01-30T00:34:54;33.14;28.49;42.87;;
67302;Laerm;57659;51.436;5.978;2024-01-30T00:35:04;33.34;28.57;42.91;;
67302;Laerm;57659;51.436;5.978;2024-01-30T00:35:14;33.63;28.83;43.82;;
67302;Laerm;57659;51.436;5.978;2024-01-30T00:35:25;32.82;28.65;42.38;;
67302;Laerm;57659;51.436;5.978;2024-01-30T00:35:35;33.08;28.59;42.94;;
67302;Laerm;57659;51.436;5.978;2024-01-30T00:35:45;33.16;28.60;42.96;;
67302;Laerm;57659;51.436;5.978;2024-01-30T00:35:56;41.41;28.94;47.03;;
67302;Laerm;57659;51.436;5.978;2024-01-30T00:36:07;41.95;37.52;44.77;;
67302;Laerm;57659;51.436;5.978;2024-01-30T00:36:17;39.36;28.98;44.20;;
67302;Laerm;57659;51.436;5.978;2024-01-30T00:36:27;33.26;28.48;42.90;;
67302;Laerm;57659;51.436;5.978;2024-01-30T00:36:40;33.30;28.53;42.73;;
67302;Laerm;57659;51.436;5.978;2024-01-30T00:36:50;33.12;28.57;41.90;;
67302;Laerm;57659;51.436;5.978;2024-01-30T00:37:00;32.66;28.49;41.80;;
67302;Laerm;57659;51.436;5.978;2024-01-30T00:37:11;33.44;28.44;42.99;;
67302;Laerm;57659;51.436;5.978;2024-01-30T00:37:21;33.51;28.68;43.16;;
67302;Laerm;57659;51.436;5.978;2024-01-30T00:37:31;33.35;28.44;42.65;;
67302;Laerm;57659;51.436;5.978;2024-01-30T00:37:42;32.80;28.62;41.75;;
67302;Laerm;57659;51.436;5.978;2024-01-30T00:37:52;33.54;28.32;43.51;;
67302;Laerm;57659;51.436;5.978;2024-01-30T00:38:02;33.33;28.46;43.60;;
67302;Laerm;57659;51.436;5.978;2024-01-30T00:38:13;33.30;28.53;42.65;;
67302;Laerm;57659;51.436;5.978;2024-01-30T00:38:23;32.88;28.58;42.29;;
67302;Laerm;57659;51.436;5.978;2024-01-30T00:38:33;33.01;28.56;43.11;;
67302;Laerm;57659;51.436;5.978;2024-01-30T00:38:44;33.37;28.61;43.33;;
67302;Laerm;57659;51.436;5.978;2024-01-30T00:38:54;33.19;28.73;43.32;;
67302;Laerm;57659;51.436;5.978;2024-01-30T00:39:04;33.27;28.25;43.39;;
67302;Laerm;57659;51.436;5.978;2024-01-30T00:39:17;33.37;28.49;43.85;;
67302;Laerm;57659;51.436;5.978;2024-01-30T00:39:29;33.32;28.42;43.69;;
67302;Laerm;57659;51.436;5.978;2024-01-30T00:39:39;33.09;28.54;43.23;;
67302;Laerm;57659;51.436;5.978;2024-01-30T00:39:50;33.03;28.28;43.34;;
67302;Laerm;57659;51.436;5.978;2024-01-30T00:40:00;33.24;28.71;42.94;;
67302;Laerm;57659;51.436;5.978;2024-01-30T00:40:10;33.21;28.20;42.25;;
67302;Laerm;57659;51.436;5.978;2024-01-30T00:40:25;33.20;28.65;43.04;;
67302;Laerm;57659;51.436;5.978;2024-01-30T00:40:36;33.51;28.14;43.22;;
67302;Laerm;57659;51.436;5.978;2024-01-30T00:40:46;33.08;28.64;42.36;;
67302;Laerm;57659;51.436;5.978;2024-01-30T00:40:56;33.24;28.30;42.95;;
67302;Laerm;57659;51.436;5.978;2024-01-30T00:41:07;33.03;28.45;42.39;;
67302;Laerm;57659;51.436;5.978;2024-01-30T00:41:18;33.51;28.31;43.43;;
67302;Laerm;57659;51.436;5.978;2024-01-30T00:41:29;33.22;28.41;43.39;;
67302;Laerm;57659;51.436;5.978;2024-01-30T00:41:39;32.92;28.38;42.55;;
67302;Laerm;57659;51.436;5.978;2024-01-30T00:41:49;32.98;28.64;42.45;;
67302;Laerm;57659;51.436;5.978;2024-01-30T00:42:00;33.36;28.55;43.04;;
67302;Laerm;57659;51.436;5.978;2024-01-30T00:42:10;32.77;28.17;42.52;;
67302;Laerm;57659;51.436;5.978;2024-01-30T00:42:20;32.25;28.42;41.15;;
67302;Laerm;57659;51.436;5.978;2024-01-30T00:42:31;32.55;28.43;42.23;;
67302;Laerm;57659;51.436;5.978;2024-01-30T00:42:42;32.97;28.62;43.11;;
67302;Laerm;57659;51.436;5.978;2024-01-30T00:42:52;33.00;28.55;42.58;;
67302;Laerm;57659;51.436;5.978;2024-01-30T00:43:02;32.22;28.69;42.26;;
67302;Laerm;57659;51.436;5.978;2024-01-30T00:43:13;32.23;28.44;42.15;;
67302;Laerm;57659;51.436;5.978;2024-01-30T00:43:23;33.10;28.45;42.96;;
67302;Laerm;57659;51.436;5.978;2024-01-30T00:43:35;33.11;28.51;42.93;;
67302;Laerm;57659;51.436;5.978;2024-01-30T00:43:45;33.60;28.56;41.88;;
67302;Laerm;57659;51.436;5.978;2024-01-30T00:43:55;32.56;28.31;42.25;;
67302;Laerm;57659;51.436;5.978;2024-01-30T00:44:06;33.08;28.00;42.51;;
67302;Laerm;57659;51.436;5.978;2024-01-30T00:44:16;32.91;28.58;42.03;;
67302;Laerm;57659;51.436;5.978;2024-01-30T00:44:26;32.78;28.50;41.68;;
67302;Laerm;57659;51.436;5.978;2024-01-30T00:44:36;32.41;28.50;40.78;;
67302;Laerm;57659;51.436;5.978;2024-01-30T00:44:48;32.84;28.43;42.35;;
67302;Laerm;57659;51.436;5.978;2024-01-30T00:44:58;33.07;28.70;42.37;;
67302;Laerm;57659;51.436;5.978;2024-01-30T00:45:15;32.98;28.46;42.07;;
67302;Laerm;57659;51.436;5.978;2024-01-30T00:45:26;32.94;28.52;42.91;;
67302;Laerm;57659;51.436;5.978;2024-01-30T00:45:36;33.10;28.55;42.91;;
67302;Laerm;57659;51.436;5.978;2024-01-30T00:45:46;32.72;28.50;43.10;;
67302;Laerm;57659;51.436;5.978;2024-01-30T00:45:57;32.72;28.21;42.37;;
67302;Laerm;57659;51.436;5.978;2024-01-30T00:46:08;32.97;28.45;43.00;;
67302;Laerm;57659;51.436;5.978;2024-01-30T00:46:18;32.88;28.47;42.58;;
67302;Laerm;57659;51.436;5.978;2024-01-30T00:46:28;32.67;27.97;42.01;;
67302;Laerm;57659;51.436;5.978;2024-01-30T00:46:39;32.80;28.77;42.85;;
67302;Laerm;57659;51.436;5.978;2024-01-30T00:46:49;32.92;28.54;42.92;;
67302;Laerm;57659;51.436;5.978;2024-01-30T00:46:59;32.64;28.42;41.51;;
67302;Laerm;57659;51.436;5.978;2024-01-30T00:47:09;32.38;28.65;41.13;;
67302;Laerm;57659;51.436;5.978;2024-01-30T00:47:20;32.44;28.66;41.63;;
67302;Laerm;57659;51.436;5.978;2024-01-30T00:47:30;32.88;28.12;42.16;;
67302;Laerm;57659;51.436;5.978;2024-01-30T00:47:43;32.42;28.43;41.21;;
67302;Laerm;57659;51.436;5.978;2024-01-30T00:47:53;32.46;28.42;41.11;;
67302;Laerm;57659;51.436;5.978;2024-01-30T00:48:03;32.59;28.43;41.69;;
67302;Laerm;57659;51.436;5.978;2024-01-30T00:48:14;32.71;28.61;41.91;;
67302;Laerm;57659;51.436;5.978;2024-01-30T00:48:24;32.10;28.41;41.23;;
67302;Laerm;57659;51.436;5.978;2024-01-30T00:48:34;32.20;28.38;40.75;;
67302;Laerm;57659;51.436;5.978;2024-01-30T00:48:45;32.61;28.42;42.06;;
67302;Laerm;57659;51.436;5.978;2024-01-30T00:48:55;32.92;28.11;42.66;;
67302;Laerm;57659;51.436;5.978;2024-01-30T00:49:05;42.08;29.39;47.15;;
67302;Laerm;57659;51.436;5.978;2024-01-30T00:49:15;44.59;38.84;48.91;;
67302;Laerm;57659;51.436;5.978;2024-01-30T00:49:26;41.78;29.27;48.24;;
67302;Laerm;57659;51.436;5.978;2024-01-30T00:49:36;33.15;28.63;42.94;;
67302;Laerm;57659;51.436;5.978;2024-01-30T00:49:46;32.70;28.58;41.27;;
67302;Laerm;57659;51.436;5.978;2024-01-30T00:49:56;32.43;28.63;41.34;;
67302;Laerm;57659;51.436;5.978;2024-01-30T00:50:07;32.45;28.67;41.28;;
67302;Laerm;57659;51.436;5.978;2024-01-30T00:50:17;32.82;28.61;42.02;;
67302;Laerm;57659;51.436;5.978;2024-01-30T00:50:27;32.58;28.52;41.30;;
67302;Laerm;57659;51.436;5.978;2024-01-30T00:50:38;32.33;28.39;40.78;;
67302;Laerm;57659;51.436;5.978;2024-01-30T00:50:48;32.18;28.63;41.17;;
67302;Laerm;57659;51.436;5.978;2024-01-30T00:50:58;32.72;28.40;42.20;;
67302;Laerm;57659;51.436;5.978;2024-01-30T00:51:08;32.88;28.37;42.41;;
67302;Laerm;57659;51.436;5.978;2024-01-30T00:51:19;32.52;28.58;41.84;;
67302;Laerm;57659;51.436;5.978;2024-01-30T00:51:29;32.69;28.32;42.50;;
67302;Laerm;57659;51.436;5.978;2024-01-30T00:51:39;32.79;28.30;42.52;;
67302;Laerm;57659;51.436;5.978;2024-01-30T00:51:50;32.72;28.51;42.37;;
67302;Laerm;57659;51.436;5.978;2024-01-30T00:52:00;32.46;27.94;41.96;;
67302;Laerm;57659;51.436;5.978;2024-01-30T00:52:10;32.44;28.52;42.54;;
67302;Laerm;57659;51.436;5.978;2024-01-30T00:52:21;32.68;28.60;42.31;;
67302;Laerm;57659;51.436;5.978;2024-01-30T00:52:31;32.89;28.51;42.40;;
67302;Laerm;57659;51.436;5.978;2024-01-30T00:52:43;32.61;28.54;42.86;;
67302;Laerm;57659;51.436;5.978;2024-01-30T00:52:55;33.47;28.56;42.50;;
67302;Laerm;57659;51.436;5.978;2024-01-30T00:53:05;36.74;28.77;44.10;;
67302;Laerm;57659;51.436;5.978;2024-01-30T00:53:16;40.77;37.03;44.76;;
67302;Laerm;57659;51.436;5.978;2024-01-30T00:53:26;40.85;37.16;44.55;;
67302;Laerm;57659;51.436;5.978;2024-01-30T00:53:36;36.74;28.68;43.98;;
67302;Laerm;57659;51.436;5.978;2024-01-30T00:53:46;32.24;28.55;40.97;;
67302;Laerm;57659;51.436;5.978;2024-01-30T00:53:57;31.95;28.59;40.66;;
67302;Laerm;57659;51.436;5.978;2024-01-30T00:54:07;31.62;28.48;40.09;;
67302;Laerm;57659;51.436;5.978;2024-01-30T00:54:18;32.03;28.58;40.69;;
67302;Laerm;57659;51.436;5.978;2024-01-30T00:54:28;31.83;28.58;40.39;;
67302;Laerm;57659;51.436;5.978;2024-01-30T00:54:39;31.56;28.34;39.42;;
67302;Laerm;57659;51.436;5.978;2024-01-30T00:54:49;31.56;28.34;39.65;;
67302;Laerm;57659;51.436;5.978;2024-01-30T00:54:59;32.29;28.44;40.98;;
67302;Laerm;57659;51.436;5.978;2024-01-30T00:55:10;32.20;28.62;40.97;;
67302;Laerm;57659;51.436;5.978;2024-01-30T00:55:21;31.77;28.40;39.65;;
67302;Laerm;57659;51.436;5.978;2024-01-30T00:55:31;31.87;28.32;40.30;;
67302;Laerm;57659;51.436;5.978;2024-01-30T00:55:41;32.44;28.51;40.59;;
67302;Laerm;57659;51.436;5.978;2024-01-30T00:55:52;32.22;28.34;40.39;;
67302;Laerm;57659;51.436;5.978;2024-01-30T00:56:02;31.98;28.55;39.99;;
67302;Laerm;57659;51.436;5.978;2024-01-30T00:56:13;33.07;28.50;43.33;;
67302;Laerm;57659;51.436;5.978;2024-01-30T00:56:23;32.28;28.60;40.83;;
67302;Laerm;57659;51.436;5.978;2024-01-30T00:56:34;32.10;28.38;40.36;;
67302;Laerm;57659;51.436;5.978;2024-01-30T00:56:44;31.96;28.54;39.96;;
67302;Laerm;57659;51.436;5.978;2024-01-30T00:56:55;31.65;28.69;40.15;;
67302;Laerm;57659;51.436;5.978;2024-01-30T00:57:05;32.10;28.60;41.14;;
67302;Laerm;57659;51.436;5.978;2024-01-30T00:57:15;32.18;28.48;40.79;;
67302;Laerm;57659;51.436;5.978;2024-01-30T00:57:25;32.05;28.30;40.60;;
67302;Laerm;57659;51.436;5.978;2024-01-30T00:57:37;32.04;28.32;41.28;;
67302;Laerm;57659;51.436;5.978;2024-01-30T00:57:47;32.22;28.45;41.14;;
67302;Laerm;57659;51.436;5.978;2024-01-30T00:57:57;32.28;28.61;40.18;;
67302;Laerm;57659;51.436;5.978;2024-01-30T00:58:07;31.94;28.50;39.84;;
67302;Laerm;57659;51.436;5.978;2024-01-30T00:58:18;32.02;28.58;40.58;;
67302;Laerm;57659;51.436;5.978;2024-01-30T00:58:29;32.11;28.58;40.67;;
67302;Laerm;57659;51.436;5.978;2024-01-30T00:58:39;32.30;28.29;40.49;;
67302;Laerm;57659;51.436;5.978;2024-01-30T00:58:50;32.05;28.37;40.08;;
67302;Laerm;57659;51.436;5.978;2024-01-30T00:59:00;32.24;28.43;41.62;;